Time;durP1;ratioP1;P1;durP2;ratioP2;P2;SDS_P1;SDS_P2;PMS_P1;PMS_P2;Temp;Humidity;BMP_temperature;BMP_pressure;BME280_temperature;BME280_humidity;BME280_pressure;Samples;Min_cycle;Max_cycle;Signal;HPM_P1;HPM_P2
2023/12/21 00:01:37;;;;;;;26.77;13.27;;;4.00;99.90;;;4.01;71.58;94398.97;5080270;28;20462;-60
2023/12/21 00:04:06;;;;;;;24.97;13.47;;;4.20;99.90;;;4.14;71.38;94389.34;5082829;28;20522;-56
2023/12/21 00:06:34;;;;;;;24.03;12.93;;;4.30;99.90;;;4.24;70.95;94392.91;5083359;28;20442;-61
2023/12/21 00:09:01;;;;;;;29.23;13.03;;;4.40;99.90;;;4.35;70.54;94406.91;5079723;28;21082;-60
2023/12/21 00:11:28;;;;;;;21.90;13.13;;;4.50;99.90;;;4.42;70.11;94401.13;5081292;28;20479;-62
2023/12/21 00:13:56;;;;;;;23.00;13.33;;;4.60;99.90;;;4.50;69.94;94410.97;5082141;28;20456;-60
2023/12/21 00:16:23;;;;;;;24.70;14.00;;;4.60;99.90;;;4.54;69.71;94406.38;5080099;28;20882;-60
2023/12/21 00:18:51;;;;;;;31.80;13.80;;;4.70;99.90;;;4.58;69.84;94407.81;5083318;28;20523;-57
2023/12/21 00:21:19;;;;;;;25.57;13.57;;;4.70;99.90;;;4.62;69.47;94419.66;5079553;28;21011;-60
2023/12/21 00:23:46;;;;;;;29.40;14.00;;;4.80;99.90;;;4.63;69.85;94416.94;5082781;28;20454;-60
2023/12/21 00:26:14;;;;;;;20.40;14.10;;;4.80;99.90;;;4.66;68.97;94427.13;5079550;28;20576;-56
2023/12/21 00:28:41;;;;;;;26.30;17.00;;;4.80;99.90;;;4.71;69.55;94433.75;5082485;28;20467;-56
2023/12/21 00:31:08;;;;;;;27.87;17.43;;;4.90;99.90;;;4.73;69.30;94434.50;5082704;28;20485;-56
2023/12/21 00:33:36;;;;;;;26.93;17.47;;;4.90;99.90;;;4.76;69.37;94432.47;5079349;28;20452;-60
2023/12/21 00:36:03;;;;;;;35.97;19.37;;;4.90;99.90;;;4.79;69.46;94436.63;5079318;28;20471;-57
2023/12/21 00:38:32;;;;;;;29.40;19.17;;;4.90;99.90;;;4.82;69.39;94439.81;5079328;28;20869;-54
2023/12/21 00:41:00;;;;;;;31.83;18.03;;;5.00;99.90;;;4.84;69.14;94435.31;5083126;28;20779;-56
2023/12/21 00:43:27;;;;;;;29.30;18.03;;;5.00;99.90;;;4.85;69.27;94437.00;5079486;28;20451;-57
2023/12/21 00:45:55;;;;;;;30.20;17.80;;;5.00;99.90;;;4.86;69.15;94437.81;5082714;28;20531;-56
2023/12/21 00:48:22;;;;;;;37.57;18.93;;;5.00;99.90;;;4.89;69.22;94441.97;5078911;28;20501;-60
2023/12/21 00:50:49;;;;;;;35.93;20.83;;;5.00;99.90;;;4.89;68.76;94439.38;5079862;28;20474;-61
2023/12/21 00:53:17;;;;;;;33.73;19.77;;;5.00;99.90;;;4.88;68.85;94433.34;5078675;28;20454;-60
2023/12/21 00:55:46;;;;;;;38.90;21.23;;;5.00;99.90;;;4.88;69.29;94433.34;5078585;28;20486;-56
2023/12/21 00:58:13;;;;;;;32.90;20.03;;;5.00;99.90;;;4.88;68.96;94441.16;5078476;28;21018;-56
2023/12/21 01:00:40;;;;;;;36.90;21.53;;;5.00;99.90;;;4.88;69.14;94445.50;5082465;28;20982;-60
2023/12/21 01:03:08;;;;;;;39.40;23.47;;;5.00;99.90;;;4.88;68.90;94442.91;5078982;28;20497;-61
2023/12/21 01:05:35;;;;;;;40.13;23.20;;;5.00;99.90;;;4.86;68.66;94440.41;5078814;28;20982;-61
2023/12/21 01:08:02;;;;;;;38.17;21.37;;;5.00;99.90;;;4.85;68.88;94438.78;5081748;28;20470;-56
2023/12/21 01:10:30;;;;;;;40.47;21.77;;;5.00;99.90;;;4.84;68.88;94444.91;5077397;28;20528;-56
2023/12/21 01:12:58;;;;;;;38.33;20.97;;;5.00;99.90;;;4.84;69.20;94447.53;5082350;28;20466;-57
2023/12/21 01:15:26;;;;;;;51.53;20.93;;;5.00;99.90;;;4.83;69.00;94451.06;5082397;28;20511;-60
2023/12/21 01:17:53;;;;;;;31.10;19.83;;;5.00;99.90;;;4.83;68.78;94443.25;5077997;28;20486;-59
2023/12/21 01:20:20;;;;;;;37.43;21.20;;;5.00;99.90;;;4.79;69.10;94444.44;5078408;28;20592;-60
2023/12/21 01:23:06;;;;;;;33.87;20.20;;;5.00;99.90;;;4.81;69.00;94447.75;5081754;28;20454;-60
2023/12/21 01:25:34;;;;;;;33.77;19.07;;;5.00;99.90;;;4.77;68.37;94448.91;5080343;28;20891;-60
2023/12/21 01:28:02;;;;;;;32.73;19.37;;;5.00;99.90;;;4.74;68.89;94438.72;5081723;28;20446;-60
2023/12/21 01:30:29;;;;;;;32.93;19.77;;;4.90;99.90;;;4.71;68.88;94441.56;5080450;28;20471;-56
2023/12/21 01:32:57;;;;;;;34.67;19.03;;;4.90;99.90;;;4.69;68.63;94446.06;5079860;28;20454;-60
2023/12/21 01:35:24;;;;;;;34.10;20.60;;;4.90;99.90;;;4.65;69.24;94448.91;5080017;28;21069;-57
2023/12/21 01:37:51;;;;;;;45.10;21.90;;;4.80;99.90;;;4.64;69.14;94436.81;5080136;28;20498;-57
2023/12/21 01:40:18;;;;;;;37.50;20.10;;;4.80;99.90;;;4.63;68.97;94436.94;5077693;28;20478;-57
2023/12/21 01:42:46;;;;;;;32.27;19.90;;;4.80;99.90;;;4.62;69.20;94440.50;5079705;28;20454;-56
2023/12/21 01:45:14;;;;;;;44.93;21.17;;;4.80;99.90;;;4.61;69.13;94437.03;5080913;28;20515;-61
2023/12/21 01:47:42;;;;;;;34.10;20.73;;;4.80;99.90;;;4.59;69.28;94431.13;5077676;28;20451;-57
2023/12/21 01:50:10;;;;;;;46.30;22.40;;;4.80;99.90;;;4.58;69.23;94433.84;5080154;28;20527;-59
2023/12/21 01:52:37;;;;;;;38.20;21.47;;;4.70;99.90;;;4.56;69.58;94426.16;5080045;28;20447;-60
2023/12/21 01:55:06;;;;;;;39.10;22.20;;;4.80;99.90;;;4.56;69.07;94435.75;5080181;28;20470;-56
2023/12/21 01:57:33;;;;;;;40.30;22.33;;;4.80;99.90;;;4.54;69.35;94422.84;5079864;28;20577;-56
2023/12/21 02:00:01;;;;;;;38.90;24.37;;;4.70;99.90;;;4.53;69.40;94426.38;5078114;28;20480;-57
2023/12/21 02:02:29;;;;;;;42.67;25.50;;;4.70;99.90;;;4.51;69.19;94428.28;5079096;28;20454;-57
2023/12/21 02:04:56;;;;;;;41.50;25.50;;;4.70;99.90;;;4.51;69.30;94437.84;5079408;28;20535;-54
2023/12/21 02:07:24;;;;;;;43.97;27.03;;;4.70;99.90;;;4.49;69.37;94436.19;5078764;28;20505;-56
2023/12/21 02:09:51;;;;;;;40.37;24.17;;;4.70;99.90;;;4.50;69.57;94442.22;5074493;28;21058;-55
2023/12/21 02:12:18;;;;;;;47.67;24.97;;;4.70;99.90;;;4.49;69.35;94446.63;5081338;28;20441;-54
2023/12/21 02:14:45;;;;;;;44.90;25.23;;;4.70;99.90;;;4.51;69.50;94440.44;5078558;28;20463;-55
2023/12/21 02:17:15;;;;;;;44.33;24.70;;;4.70;99.90;;;4.48;69.33;94438.91;5079780;28;20449;-57
2023/12/21 02:19:44;;;;;;;44.90;24.07;;;4.60;99.90;;;4.45;69.72;94439.16;5077941;28;20491;-60
2023/12/21 02:22:11;;;;;;;46.03;26.60;;;4.60;99.90;;;4.42;69.84;94431.56;5079257;28;20976;-56
2023/12/21 02:24:40;;;;;;;36.70;22.70;;;4.60;99.90;;;4.41;69.15;94430.72;5078875;28;20482;-60
2023/12/21 02:27:07;;;;;;;39.87;24.10;;;4.60;99.90;;;4.38;69.61;94424.91;5078707;28;20519;-57
2023/12/21 02:29:34;;;;;;;37.27;21.90;;;4.60;99.90;;;4.35;69.72;94432.94;5078517;28;21122;-60
2023/12/21 02:32:02;;;;;;;38.00;24.33;;;4.50;99.90;;;4.33;69.88;94429.63;5081545;28;20905;-60
2023/12/21 02:34:29;;;;;;;35.43;23.30;;;4.50;99.90;;;4.30;69.61;94426.28;5078911;28;20475;-56
2023/12/21 02:36:56;;;;;;;38.83;23.73;;;4.50;99.90;;;4.29;69.97;94429.84;5079507;28;20454;-60
2023/12/21 02:39:23;;;;;;;41.60;23.23;;;4.50;99.90;;;4.28;69.75;94427.38;5080743;28;20501;-60
2023/12/21 02:41:53;;;;;;;40.13;23.33;;;4.50;99.90;;;4.27;69.95;94436.09;5079026;28;20458;-55
2023/12/21 02:44:20;;;;;;;39.57;24.00;;;4.40;99.90;;;4.26;69.75;94437.91;5080296;28;20471;-55
2023/12/21 02:46:48;;;;;;;39.20;24.90;;;4.40;99.90;;;4.26;70.17;94435.28;5079111;28;20917;-55
2023/12/21 02:49:15;;;;;;;39.90;25.20;;;4.50;99.90;;;4.27;70.13;94439.53;5078245;28;20454;-55
2023/12/21 02:51:42;;;;;;;38.43;23.57;;;4.50;99.90;;;4.28;70.09;94443.81;5075387;28;20499;-59
2023/12/21 02:54:09;;;;;;;37.73;24.47;;;4.50;99.90;;;4.32;70.11;94444.41;5077766;28;20508;-59
2023/12/21 02:56:37;;;;;;;39.77;25.27;;;4.50;99.90;;;4.37;69.98;94444.06;5080526;28;20529;-58
2023/12/21 02:59:05;;;;;;;43.63;23.67;;;4.50;99.90;;;4.42;69.93;94444.56;5080412;28;20538;-54
2023/12/21 03:01:33;;;;;;;36.10;23.40;;;4.60;99.90;;;4.42;70.18;94429.78;5078094;28;20512;-61
2023/12/21 03:04:01;;;;;;;33.00;23.03;;;4.60;99.90;;;4.47;70.00;94443.28;5079137;28;20446;-56
2023/12/21 03:06:28;;;;;;;38.20;23.20;;;4.70;99.90;;;4.53;69.84;94446.38;5078154;28;20451;-61
2023/12/21 03:08:54;;;;;;;40.53;22.00;;;4.70;99.90;;;4.57;69.68;94438.25;5079744;28;20453;-57
2023/12/21 03:11:22;;;;;;;36.97;21.90;;;4.70;99.90;;;4.62;69.76;94437.91;5076110;28;20478;-55
2023/12/21 03:13:49;;;;;;;35.80;22.33;;;4.80;99.90;;;4.64;69.52;94439.41;5080790;28;20491;-56
2023/12/21 03:16:20;;;;;;;38.00;23.17;;;4.80;99.90;;;4.69;69.33;94446.06;5079290;28;20480;-57
2023/12/21 03:18:47;;;;;;;31.10;20.70;;;4.90;99.90;;;4.71;69.63;94450.22;5078109;28;21053;-61
2023/12/21 03:21:15;;;;;;;33.30;20.40;;;4.90;99.90;;;4.73;69.60;94452.72;5078925;28;20466;-61
2023/12/21 03:23:42;;;;;;;32.77;21.60;;;4.90;99.90;;;4.74;69.42;94457.81;5078148;28;20537;-55
2023/12/21 03:26:10;;;;;;;39.27;22.63;;;4.90;99.90;;;4.77;69.54;94456.75;5079709;28;20474;-55
2023/12/21 03:28:37;;;;;;;34.60;21.47;;;4.90;99.90;;;4.78;69.40;94455.81;5077843;28;20931;-58
2023/12/21 03:31:08;;;;;;;32.90;20.80;;;4.90;99.90;;;4.81;69.45;94460.78;5081975;28;20474;-56
2023/12/21 03:33:37;;;;;;;37.47;21.10;;;5.00;99.90;;;4.82;69.24;94462.47;5082900;28;20821;-58
2023/12/21 03:36:05;;;;;;;31.73;20.50;;;5.00;99.90;;;4.84;69.32;94460.56;5082562;28;20543;-56
2023/12/21 03:38:32;;;;;;;30.30;21.00;;;5.00;99.90;;;4.87;69.31;94462.09;5082185;28;20498;-55
2023/12/21 03:41:00;;;;;;;34.73;21.50;;;5.00;99.90;;;4.87;69.06;94465.53;5079847;28;20922;-56
2023/12/21 03:43:27;;;;;;;34.53;22.47;;;5.00;99.90;;;4.90;69.16;94467.91;5082416;28;20519;-56
2023/12/21 03:45:54;;;;;;;36.67;21.20;;;5.00;99.90;;;4.92;69.00;94470.41;5081375;28;20547;-61
2023/12/21 03:48:21;;;;;;;30.37;19.93;;;5.10;99.90;;;4.93;68.74;94459.88;5082784;28;20446;-63
2023/12/21 03:50:50;;;;;;;29.03;19.30;;;5.10;99.90;;;4.94;69.08;94469.34;5084315;28;20482;-56
2023/12/21 03:53:17;;;;;;;32.73;18.70;;;5.10;99.90;;;4.96;69.15;94480.47;5081367;28;20443;-57
2023/12/21 03:55:45;;;;;;;39.80;20.97;;;5.10;99.90;;;4.98;69.02;94477.75;5082009;28;20462;-61
2023/12/21 03:58:12;;;;;;;31.27;19.80;;;5.10;99.90;;;5.00;68.77;94475.84;5082840;28;20465;-61
2023/12/21 04:00:39;;;;;;;31.73;20.90;;;5.10;99.90;;;5.03;68.91;94478.22;5081249;28;20466;-60
2023/12/21 04:03:06;;;;;;;33.27;19.83;;;5.20;99.90;;;5.04;68.91;94477.28;5082359;28;20450;-61
2023/12/21 04:05:34;;;;;;;30.53;19.90;;;5.20;99.90;;;5.06;68.86;94475.41;5080751;28;20475;-56
2023/12/21 04:08:02;;;;;;;28.13;18.43;;;5.20;99.90;;;5.06;68.83;94472.78;5082609;28;20524;-60
2023/12/21 04:10:29;;;;;;;32.33;18.90;;;5.20;99.90;;;5.07;68.52;94471.03;5079671;28;20527;-60
2023/12/21 04:12:57;;;;;;;26.90;16.80;;;5.20;99.90;;;5.07;68.54;94477.06;5079781;28;20447;-61
2023/12/21 04:15:24;;;;;;;24.03;14.50;;;5.20;99.90;;;5.09;68.75;94480.38;5080519;28;20524;-61
2023/12/21 04:17:51;;;;;;;23.93;13.93;;;5.20;99.90;;;5.11;68.27;94472.44;5082305;28;20458;-60
2023/12/21 04:20:18;;;;;;;21.13;13.90;;;5.20;99.90;;;5.12;68.08;94471.50;5080436;28;20499;-55
2023/12/21 04:22:46;;;;;;;23.03;15.13;;;5.30;99.90;;;5.13;68.58;94470.56;5081905;28;20457;-56
2023/12/21 04:25:14;;;;;;;25.40;14.63;;;5.30;99.90;;;5.13;68.23;94470.56;5083220;28;20994;-57
2023/12/21 04:27:42;;;;;;;19.60;12.60;;;5.30;99.90;;;5.13;68.26;94476.59;5080474;28;20446;-56
2023/12/21 04:30:11;;;;;;;17.40;12.00;;;5.30;99.90;;;5.13;68.10;94474.00;5082753;28;20470;-56
2023/12/21 04:32:38;;;;;;;18.90;11.90;;;5.30;99.90;;;5.16;68.25;94475.53;5081024;28;20454;-61
2023/12/21 04:35:09;;;;;;;16.57;11.13;;;5.30;99.90;;;5.15;67.86;94473.88;5082653;28;20469;-61
2023/12/21 04:37:36;;;;;;;16.00;10.57;;;5.30;99.90;;;5.17;67.93;94479.78;5081114;28;20527;-58
2023/12/21 04:40:03;;;;;;;20.03;10.80;;;5.30;99.90;;;5.17;67.80;94478.03;5079496;28;20567;-63
2023/12/21 04:42:32;;;;;;;16.10;11.13;;;5.30;99.90;;;5.17;67.76;94478.03;5082302;28;20541;-60
2023/12/21 04:44:59;;;;;;;13.70;9.67;;;5.30;99.90;;;5.17;67.72;94471.97;5082377;28;20825;-58
2023/12/21 04:47:27;;;;;;;19.40;11.57;;;5.30;99.90;;;5.17;67.84;94469.38;5080626;28;20459;-56
2023/12/21 04:49:54;;;;;;;14.17;10.00;;;5.30;99.90;;;5.18;68.01;94469.25;5082799;28;20477;-55
2023/12/21 04:52:21;;;;;;;14.20;9.30;;;5.30;99.90;;;5.19;67.93;94460.50;5082577;28;20446;-56
2023/12/21 04:54:48;;;;;;;12.73;9.33;;;5.30;99.90;;;5.21;67.65;94462.97;5081620;28;20474;-55
2023/12/21 04:57:16;;;;;;;13.80;9.33;;;5.40;99.90;;;5.24;67.59;94473.19;5079504;28;20450;-56
2023/12/21 04:59:44;;;;;;;13.17;8.70;;;5.40;99.90;;;5.24;67.51;94475.78;5080724;28;20542;-56
2023/12/21 05:02:12;;;;;;;16.97;9.73;;;5.40;99.90;;;5.26;67.63;94476.47;5078239;28;20558;-56
2023/12/21 05:04:39;;;;;;;12.80;9.10;;;5.40;99.90;;;5.26;67.49;94471.28;5080402;28;20470;-55
2023/12/21 05:07:10;;;;;;;14.60;9.03;;;5.40;99.90;;;5.27;67.15;94477.34;5079124;28;20545;-61
2023/12/21 05:09:37;;;;;;;10.80;7.50;;;5.40;99.90;;;5.29;67.39;94481.47;5079996;28;20566;-60
2023/12/21 05:12:05;;;;;;;12.37;8.37;;;5.40;99.90;;;5.29;67.03;94480.66;5082169;28;20549;-60
2023/12/21 05:14:33;;;;;;;14.67;8.80;;;5.40;99.90;;;5.30;67.13;94477.06;5079358;28;20557;-62
2023/12/21 05:17:02;;;;;;;13.20;9.00;;;5.40;99.90;;;5.30;67.17;94485.75;5080726;28;20442;-57
2023/12/21 05:19:29;;;;;;;10.63;8.67;;;5.50;99.90;;;5.30;66.73;94490.97;5079582;28;20499;-56
2023/12/21 05:21:57;;;;;;;14.97;9.63;;;5.50;99.90;;;5.30;66.66;94488.34;5080435;28;20462;-56
2023/12/21 05:24:24;;;;;;;14.13;9.47;;;5.50;99.90;;;5.30;67.02;94493.56;5079007;28;20467;-56
2023/12/21 05:26:51;;;;;;;13.77;9.47;;;5.50;99.90;;;5.31;66.64;94489.16;5080669;28;20454;-54
2023/12/21 05:29:19;;;;;;;13.90;8.40;;;5.50;99.90;;;5.30;66.84;94487.50;5078672;28;20478;-57
2023/12/21 05:31:46;;;;;;;15.03;10.27;;;5.50;99.90;;;5.30;66.76;94482.28;5081717;28;20442;-56
2023/12/21 05:34:15;;;;;;;15.20;10.83;;;5.50;99.90;;;5.30;66.87;94485.75;5077808;28;20497;-55
2023/12/21 05:36:43;;;;;;;13.00;9.80;;;5.50;99.90;;;5.30;66.87;94483.13;5080489;28;20469;-58
2023/12/21 05:39:10;;;;;;;12.40;8.97;;;5.50;99.90;;;5.30;66.56;94479.69;5081672;28;20486;-56
2023/12/21 05:41:38;;;;;;;14.30;9.93;;;5.50;99.90;;;5.27;66.70;94478.16;5081573;28;20442;-56
2023/12/21 05:44:05;;;;;;;16.43;10.03;;;5.50;99.90;;;5.25;66.92;94480.06;5083095;28;20461;-57
2023/12/21 05:46:32;;;;;;;11.57;8.57;;;5.40;99.90;;;5.24;66.81;94488.00;5078720;28;20512;-56
2023/12/21 05:49:00;;;;;;;13.47;10.10;;;5.40;99.90;;;5.22;66.56;94485.50;5080087;28;20450;-61
2023/12/21 05:51:28;;;;;;;12.20;9.03;;;5.40;99.90;;;5.18;66.60;94469.25;5081221;28;20537;-62
2023/12/21 05:53:55;;;;;;;12.80;8.37;;;5.40;99.90;;;5.18;67.10;94468.44;5078859;28;20524;-56
2023/12/21 05:56:22;;;;;;;11.10;7.93;;;5.40;99.90;;;5.15;66.63;94476.47;5080273;28;20458;-56
2023/12/21 05:58:49;;;;;;;13.03;9.57;;;5.30;99.90;;;5.14;66.83;94475.66;5078246;28;20466;-58
2023/12/21 06:01:17;;;;;;;12.47;8.70;;;5.30;99.90;;;5.15;66.77;94469.47;5079887;28;20586;-56
2023/12/21 06:03:44;;;;;;;13.30;9.27;;;5.30;99.90;;;5.16;66.66;94467.72;5077163;28;20802;-62
2023/12/21 06:06:13;;;;;;;14.03;8.90;;;5.30;99.90;;;5.15;66.47;94468.66;5076611;28;20557;-61
2023/12/21 06:08:41;;;;;;;11.60;8.90;;;5.30;99.90;;;5.16;66.88;94476.38;5080466;28;20481;-56
2023/12/21 06:11:09;;;;;;;13.53;8.27;;;5.30;99.90;;;5.17;66.42;94475.44;5077154;28;20462;-61
2023/12/21 06:13:36;;;;;;;15.10;8.50;;;5.30;99.90;;;5.17;66.04;94478.03;5077885;28;20453;-55
2023/12/21 06:16:03;;;;;;;10.90;7.60;;;5.30;99.90;;;5.18;66.13;94473.66;5080401;28;20930;-62
2023/12/21 06:18:31;;;;;;;11.10;7.60;;;5.30;99.90;;;5.18;65.98;94478.84;5077641;28;20882;-56
2023/12/21 06:20:58;;;;;;;12.43;8.60;;;5.30;99.90;;;5.18;66.07;94474.47;5080078;28;20545;-56
2023/12/21 06:23:26;;;;;;;11.50;8.00;;;5.40;99.90;;;5.21;65.97;94476.03;5077027;28;20546;-56
2023/12/21 06:25:55;;;;;;;11.50;7.77;;;5.40;99.90;;;5.23;65.85;94481.94;5077268;28;20472;-56
2023/12/21 06:28:23;;;;;;;12.47;9.37;;;5.40;99.90;;;5.27;66.34;94479.94;5080128;28;20442;-56
2023/12/21 06:30:50;;;;;;;13.43;8.30;;;5.40;99.90;;;5.43;66.11;94474.38;5077369;28;20469;-58
2023/12/21 06:33:18;;;;;;;11.10;8.17;;;5.60;99.90;;;5.79;65.92;94472.44;5078880;28;20450;-58
2023/12/21 06:35:45;;;;;;;11.00;8.20;;;5.90;99.90;;;6.05;65.04;94473.84;5077252;28;20474;-56
2023/12/21 06:38:12;;;;;;;8.80;7.63;;;6.20;99.90;;;6.39;64.30;94471.16;5080296;28;20446;-56
2023/12/21 06:40:40;;;;;;;15.33;9.23;;;6.50;99.90;;;6.76;63.54;94473.38;5077345;28;20498;-57
2023/12/21 06:43:08;;;;;;;11.07;8.03;;;6.90;99.90;;;7.02;62.72;94472.16;5078508;28;20462;-55
2023/12/21 06:45:36;;;;;;;15.97;9.10;;;7.10;99.90;;;7.17;62.70;94482.19;5077423;28;20832;-56
2023/12/21 06:48:04;;;;;;;12.87;8.70;;;7.40;99.90;;;7.23;62.06;94480.81;5080444;28;20540;-57
2023/12/21 06:50:32;;;;;;;16.77;10.73;;;7.40;99.90;;;7.21;60.90;94490.59;5077259;28;20581;-56
2023/12/21 06:52:59;;;;;;;15.40;9.97;;;7.40;99.50;;;7.15;61.57;94485.88;5080400;28;20518;-57
2023/12/21 06:55:27;;;;;;;12.90;8.93;;;7.30;99.50;;;7.08;61.67;94485.56;5076975;28;20503;-62
2023/12/21 06:57:54;;;;;;;12.73;9.20;;;7.20;99.50;;;7.04;61.72;94486.75;5078295;28;20522;-61
2023/12/21 07:00:23;;;;;;;15.60;10.30;;;7.20;99.60;;;7.02;61.69;94488.69;5080133;28;20485;-56
2023/12/21 07:02:51;;;;;;;12.93;8.60;;;7.20;99.70;;;7.24;62.12;94479.88;5072182;28;20450;-57
2023/12/21 07:05:20;;;;;;;9.77;7.47;;;7.30;99.90;;;7.46;61.48;94491.13;5079338;28;20478;-57
2023/12/21 07:07:47;;;;;;;11.37;8.47;;;7.50;99.70;;;7.59;60.50;94494.38;5075928;28;20446;-55
2023/12/21 07:10:15;;;;;;;10.57;7.70;;;7.70;99.20;;;7.71;60.38;94488.09;5077430;28;20463;-56
2023/12/21 07:12:42;;;;;;;10.83;8.40;;;7.80;98.80;;;7.91;59.97;94488.13;5080624;28;20978;-55
2023/12/21 07:15:11;;;;;;;14.40;9.97;;;8.00;98.80;;;8.56;60.10;94482.50;5077029;28;20463;-57
2023/12/21 07:17:40;;;;;;;12.40;8.87;;;8.60;99.30;;;9.57;58.77;94496.03;5083155;28;20507;-61
2023/12/21 07:20:09;;;;;;;9.50;7.43;;;9.50;98.50;;;10.27;56.10;94493.00;5077496;28;20498;-62
2023/12/21 07:22:36;;;;;;;10.97;8.03;;;10.20;95.80;;;10.63;55.53;94495.69;5075916;28;20530;-61
2023/12/21 07:25:05;;;;;;;12.17;7.80;;;10.80;94.90;;;10.85;54.70;94501.50;5076202;28;20494;-57
2023/12/21 07:27:32;;;;;;;11.43;7.70;;;11.00;93.50;;;11.06;54.44;94485.38;5087316;28;20498;-56
2023/12/21 07:30:00;;;;;;;11.77;8.00;;;11.30;93.00;;;11.38;53.02;94487.44;5078416;28;20524;-56
2023/12/21 07:32:27;;;;;;;10.43;7.73;;;11.70;91.70;;;11.89;52.16;94479.66;5078167;28;20545;-58
2023/12/21 07:34:56;;;;;;;9.37;6.73;;;12.20;90.90;;;12.53;51.55;94484.53;5077319;28;20512;-57
2023/12/21 07:37:24;;;;;;;11.13;7.63;;;12.80;90.50;;;12.92;50.12;94481.31;5078060;28;20461;-56
2023/12/21 07:39:51;;;;;;;13.83;8.57;;;13.30;86.80;;;13.15;49.01;94484.13;5077353;28;20532;-55
2023/12/21 07:42:18;;;;;;;10.10;7.30;;;13.60;83.20;;;13.39;48.17;94485.13;5078298;28;20457;-61
2023/12/21 07:44:46;;;;;;;12.53;7.90;;;13.80;81.00;;;13.68;47.92;94489.88;5076762;28;20479;-59
2023/12/21 07:47:13;;;;;;;8.83;7.10;;;14.10;80.10;;;14.19;47.66;94494.00;5079563;28;20507;-61
2023/12/21 07:49:40;;;;;;;11.83;7.53;;;14.50;80.50;;;14.71;46.65;94498.75;5076855;28;20474;-57
2023/12/21 07:52:09;;;;;;;10.03;7.77;;;14.90;77.80;;;14.94;45.85;94493.50;5079743;28;20449;-56
2023/12/21 07:54:37;;;;;;;8.97;7.20;;;15.00;76.30;;;14.80;45.52;94491.59;5077020;28;20471;-55
2023/12/21 07:57:04;;;;;;;7.20;6.50;;;15.00;74.50;;;14.65;44.63;94488.88;5079145;28;20960;-56
2023/12/21 07:59:32;;;;;;;10.43;8.20;;;14.80;72.10;;;14.47;44.79;94494.41;5076692;28;21062;-57
2023/12/21 08:01:59;;;;;;;9.10;7.23;;;14.60;71.90;;;14.16;44.02;94495.19;5078999;28;20458;-56
2023/12/21 08:04:26;;;;;;;11.10;7.40;;;14.30;71.00;;;14.03;45.67;94494.91;5075596;28;20475;-55
2023/12/21 08:06:54;;;;;;;8.13;6.27;;;14.10;72.50;;;13.91;44.60;94497.06;5079337;28;20954;-56
2023/12/21 08:09:23;;;;;;;8.67;6.60;;;13.90;71.30;;;13.74;45.47;94498.94;5077475;28;20548;-56
2023/12/21 08:11:50;;;;;;;9.73;7.37;;;13.80;73.20;;;13.81;44.58;94499.91;5079498;28;20870;-56
2023/12/21 08:14:17;;;;;;;8.70;6.50;;;13.90;70.10;;;13.95;44.18;94495.75;5076714;28;20454;-56
2023/12/21 08:16:44;;;;;;;7.53;6.57;;;13.80;70.40;;;13.81;44.57;94498.09;5080001;28;20446;-56
2023/12/21 08:19:12;;;;;;;9.37;6.23;;;13.70;70.90;;;13.80;45.49;94501.75;5080358;28;20455;-54
2023/12/21 08:21:39;;;;;;;7.93;6.33;;;13.70;72.20;;;13.94;45.26;94505.50;5082945;28;20512;-61
2023/12/21 08:24:07;;;;;;;9.67;7.43;;;13.80;72.10;;;13.87;44.61;94501.88;5079698;28;20454;-57
2023/12/21 08:26:36;;;;;;;10.23;6.40;;;13.70;71.50;;;13.89;43.28;94505.19;5082913;28;20979;-55
2023/12/21 08:29:03;;;;;;;6.93;5.90;;;13.80;68.60;;;13.90;43.74;94500.75;5080092;28;20525;-62
2023/12/21 08:31:30;;;;;;;6.30;5.63;;;13.80;69.30;;;13.70;44.03;94500.28;5083183;28;20450;-62
2023/12/21 08:33:58;;;;;;;7.00;5.47;;;13.60;68.80;;;13.67;44.31;94495.34;5078551;28;20479;-56
2023/12/21 08:36:25;;;;;;;8.27;5.30;;;13.50;69.30;;;13.87;44.09;94499.25;5083105;28;20442;-57
2023/12/21 08:38:52;;;;;;;8.30;5.90;;;13.70;69.90;;;14.10;42.49;94502.00;5079813;28;20602;-56
2023/12/21 08:41:21;;;;;;;7.43;5.83;;;13.80;66.80;;;14.00;43.05;94501.34;5083240;28;20508;-57
2023/12/21 08:43:50;;;;;;;5.60;5.10;;;13.80;66.80;;;13.79;42.55;94492.16;5079800;28;20497;-56
2023/12/21 08:46:17;;;;;;;8.37;6.27;;;13.70;66.70;;;13.76;43.72;94503.06;5082468;28;20462;-57
2023/12/21 08:48:44;;;;;;;7.13;6.23;;;13.70;68.60;;;14.06;43.32;94492.72;5079320;28;20939;-54
2023/12/21 08:51:12;;;;;;;7.33;6.10;;;13.90;67.30;;;14.36;43.23;94492.97;5082473;28;20485;-56
2023/12/21 08:53:39;;;;;;;6.37;5.73;;;14.10;67.80;;;14.67;41.25;94489.50;5079238;28;20451;-56
2023/12/21 08:56:07;;;;;;;6.30;4.87;;;14.40;64.70;;;15.05;41.23;94487.78;5082629;28;20477;-56
2023/12/21 08:58:35;;;;;;;6.97;5.60;;;14.70;65.10;;;15.55;41.76;94485.56;5079268;28;20455;-56
2023/12/21 09:01:05;;;;;;;6.93;5.40;;;15.10;66.10;;;16.06;40.47;94484.88;5082128;28;20576;-56
2023/12/21 09:03:32;;;;;;;6.47;5.10;;;15.60;63.70;;;16.53;39.59;94474.03;5079007;28;20522;-58
2023/12/21 09:05:59;;;;;;;8.40;5.43;;;16.10;62.20;;;16.98;39.55;94470.28;5082154;28;20474;-55
2023/12/21 09:08:27;;;;;;;6.40;5.00;;;16.50;61.70;;;17.41;37.01;94466.78;5079077;28;20466;-57
2023/12/21 09:10:54;;;;;;;9.60;5.40;;;16.90;58.60;;;17.76;38.23;94466.84;5082133;28;20510;-54
2023/12/21 09:13:22;;;;;;;8.53;5.27;;;17.30;59.80;;;18.08;37.85;94460.13;5078944;28;20995;-62
2023/12/21 09:15:50;;;;;;;6.23;5.37;;;17.60;59.80;;;18.47;36.86;94457.84;5082683;28;20476;-57
2023/12/21 09:18:19;;;;;;;5.63;5.03;;;17.90;57.60;;;18.47;36.44;94439.22;5078690;28;20546;-61
2023/12/21 09:20:47;;;;;;;8.23;5.80;;;18.00;57.20;;;18.29;35.58;94445.06;5082068;28;20497;-56
2023/12/21 09:23:14;;;;;;;5.80;5.30;;;18.00;56.20;;;18.22;36.09;94450.38;5078931;28;20455;-57
2023/12/21 09:25:41;;;;;;;5.67;5.17;;;17.90;56.10;;;18.26;36.80;94440.13;5081623;28;20481;-57
2023/12/21 09:28:09;;;;;;;8.77;5.20;;;18.00;57.30;;;18.51;34.41;94431.63;5078571;28;20827;-54
2023/12/21 09:30:36;;;;;;;7.13;5.50;;;18.10;53.60;;;18.68;36.25;94434.75;5081871;28;20506;-56
2023/12/21 09:33:05;;;;;;;6.37;5.77;;;18.20;56.50;;;18.64;35.72;94429.84;5077531;28;20466;-61
2023/12/21 09:35:34;;;;;;;6.77;6.00;;;18.20;55.70;;;18.51;36.09;94432.44;5081891;28;20988;-55
2023/12/21 09:38:01;;;;;;;8.37;6.30;;;18.20;55.60;;;18.39;36.86;94421.56;5079102;28;20451;-60
2023/12/21 09:40:29;;;;;;;5.17;4.67;;;18.20;56.10;;;18.38;37.00;94425.22;5081824;28;20489;-60
2023/12/21 09:42:57;;;;;;;7.57;5.00;;;18.10;56.60;;;18.31;36.39;94420.91;5078908;28;20455;-61
2023/12/21 09:45:24;;;;;;;5.00;4.53;;;18.00;55.00;;;18.10;35.75;94412.81;5081721;28;20480;-62
2023/12/21 09:47:52;;;;;;;5.33;4.70;;;17.90;53.90;;;17.84;35.10;94410.00;5078562;28;20455;-56
2023/12/21 09:50:19;;;;;;;5.70;4.87;;;17.70;52.90;;;17.75;35.91;94412.00;5081419;28;20546;-57
2023/12/21 09:52:49;;;;;;;8.10;5.30;;;17.60;54.30;;;17.69;36.31;94412.78;5078386;28;20537;-57
2023/12/21 09:55:17;;;;;;;5.87;4.70;;;17.50;54.30;;;17.61;36.43;94405.75;5081014;28;20470;-56
2023/12/21 09:57:44;;;;;;;4.50;4.10;;;17.40;54.60;;;17.43;36.54;94398.31;5078652;28;20569;-55
2023/12/21 10:00:13;;;;;;;7.67;5.20;;;17.20;55.00;;;17.22;35.77;94399.16;5081174;28;20492;-56
2023/12/21 10:02:41;;;;;;;7.13;5.17;;;17.10;53.20;;;17.02;34.90;94385.69;5077583;28;20892;-57
2023/12/21 10:05:09;;;;;;;8.73;5.30;;;16.90;53.00;;;16.80;36.77;94377.72;5081163;28;20639;-57
2023/12/21 10:07:36;;;;;;;6.67;4.53;;;16.70;54.60;;;16.78;36.83;94369.13;5078264;28;20447;-56
2023/12/21 10:10:06;;;;;;;4.20;3.90;;;16.60;55.00;;;16.84;36.52;94365.72;5080857;28;20553;-62
2023/12/21 10:12:34;;;;;;;6.17;5.10;;;16.60;55.00;;;16.91;36.82;94364.97;5078654;28;20478;-56
2023/12/21 10:15:03;;;;;;;9.27;4.00;;;16.60;55.20;;;17.04;37.30;94359.78;5080444;28;20477;-61
2023/12/21 10:17:32;;;;;;;4.27;3.97;;;16.70;55.70;;;17.15;35.96;94364.56;5078798;28;20450;-57
2023/12/21 10:20:00;;;;;;;4.03;3.67;;;16.90;53.80;;;17.31;36.51;94346.69;5079620;28;20474;-62
2023/12/21 10:22:27;;;;;;;4.83;4.10;;;17.00;55.10;;;17.63;35.07;94352.38;5078439;28;20487;-61